Terminal Aerodrome Forecast
Issued by NWS

Home | Current Version | Previous Version | Text Only | Print | Product List | Glossary On
Versions: 1 2 3 4 5 6 7 8 9 10 11 12 13 14 15
462
FTUS45 KTFX 301726
TAFGTF
TAF
KGTF 301726Z 3018/0118 VRB06KT P6SM SCT030 BKN080
     FM010200 07007KT P6SM FEW080 SCT200=

USA.gov is the U.S. government's official web portal to all federal, state and local government web resources and services.